ADDS METAR Data INFO
IDs: Format: Raw Decoded Include TAF

Data at: 0855 UTC 19 Jun 2018

KOJA 190835Z AUTO 17012G17KT 10SM CLR 24/21 A2996 RMK AO2
KOJA 190815Z AUTO 16012KT 10SM CLR 25/21 A2997 RMK AO2
KOJA 190755Z AUTO 16011KT 10SM CLR 25/21 A2997 RMK AO2
KOJA 190735Z AUTO 16010G15KT 10SM CLR 25/21 A2996 RMK AO2
KOJA 190715Z AUTO 15006KT 10SM CLR 25/21 A2997 RMK AO2
KOJA 190655Z AUTO 16006KT 10SM CLR 25/21 A2997 RMK AO2
KOJA 190635Z AUTO 16006KT 10SM CLR 25/21 A2997 RMK AO2
KOJA 190615Z AUTO 16006KT 10SM CLR 26/21 A2997 RMK AO2
KOJA 190555Z AUTO 16007KT 10SM CLR 26/21 A2997 RMK AO2
KOJA 190535Z AUTO 15007KT 10SM CLR 26/21 A2998 RMK AO2
KOJA 190515Z AUTO 15010KT 10SM CLR 26/21 A2998 RMK AO2
KOJA 190455Z AUTO 15010KT 10SM CLR 26/21 A2998 RMK AO2
KOJA 190435Z AUTO 15010KT 10SM CLR 27/21 A2998 RMK AO2
KOJA 190415Z AUTO 15009KT 10SM CLR 27/21 A2998 RMK AO2
KOJA 190355Z AUTO 15008KT 10SM CLR 27/21 A2999 RMK AO2
KOJA 190335Z AUTO 15007KT 10SM CLR 27/20 A2999 RMK AO2
KOJA 190315Z AUTO 15006KT 10SM CLR 27/20 A2998 RMK AO2
KOJA 190255Z AUTO 15006KT 10SM CLR 28/20 A2998 RMK AO2
KOJA 190235Z AUTO 16008KT 10SM CLR 28/20 A2997 RMK AO2
KOJA 190215Z AUTO 16010KT 10SM CLR 28/20 A2996 RMK AO2
KOJA 190155Z AUTO 16010G15KT 10SM CLR 29/20 A2995 RMK AO2
KOJA 190135Z AUTO 15010G15KT 10SM CLR 29/20 A2995 RMK AO2
KOJA 190115Z AUTO 16012G15KT 10SM CLR 30/20 A2995 RMK AO2
KOJA 190055Z AUTO 16010G17KT 10SM CLR 30/20 A2995 RMK AO2
KOJA 190035Z AUTO 16016G19KT 10SM CLR 30/20 A2995 RMK AO2
KOJA 190015Z AUTO 16012G22KT 10SM SCT050 31/20 A2995 RMK AO2
KOJA 182355Z AUTO 15016G23KT 10SM CLR 32/20 A2993 RMK AO2
KOJA 182335Z AUTO 14017G24KT 10SM SCT050 32/20 A2992 RMK AO2
KOJA 182315Z AUTO 14017G22KT 10SM SCT050 31/20 A2991 RMK AO2 LTG DSNT W
KOJA 182255Z AUTO 15017G21KT 10SM SCT050 32/20 A2992 RMK AO2
KOJA 182235Z AUTO 14014G20KT 10SM SCT050 33/20 A2992 RMK AO2
KOJA 182215Z AUTO 14017G22KT 10SM SCT050 33/20 A2993 RMK AO2
KOJA 182155Z AUTO 14017G20KT 10SM SCT050 SCT060 SCT110 33/20 A2993 RMK AO2
KOJA 182135Z AUTO 15016G21KT 130V190 10SM SCT050 SCT060 33/20 A2993 RMK AO2
KOJA 182115Z AUTO 16011G20KT 10SM SCT050 SCT070 33/20 A2995 RMK AO2
KOJA 182055Z AUTO 19010G22KT 10SM SCT050 SCT065 33/20 A2995 RMK AO2
KOJA 182035Z AUTO 16012G18KT 10SM SCT050 33/20 A2996 RMK AO2
KOJA 182015Z AUTO 15012G19KT 10SM SCT050 33/20 A2996 RMK AO2
KOJA 181955Z AUTO 16012G17KT 10SM SCT050 33/20 A2997 RMK AO2
KOJA 181935Z AUTO 17012G17KT 10SM SCT046 33/20 A2998 RMK AO2
KOJA 181915Z AUTO 15010G18KT 10SM SCT044 33/21 A2998 RMK AO2
KOJA 181855Z AUTO 15014G18KT 10SM SCT042 33/21 A2999 RMK AO2
KOJA 181835Z AUTO 15010G18KT 10SM SCT042 32/21 A3000 RMK AO2
KOJA 181815Z AUTO 17012G19KT 10SM SCT040 BKN080 32/21 A3000 RMK AO2
KOJA 181755Z AUTO 15009G18KT 10SM SCT038 BKN080 31/21 A3001 RMK AO2
KOJA 181735Z AUTO 16010KT 10SM BKN080 31/21 A3002 RMK AO2
KOJA 181715Z AUTO 17011G16KT 10SM SCT080 SCT100 31/21 A3002 RMK AO2
KOJA 181655Z AUTO 19012G16KT 10SM SCT070 BKN095 31/21 A3002 RMK AO2
KOJA 181635Z AUTO 17010G18KT 10SM BKN070 BKN095 30/21 A3002 RMK AO2
KOJA 181615Z AUTO 19010G17KT 10SM SCT031 OVC070 30/21 A3002 RMK AO2
KOJA 181555Z AUTO 17015KT 10SM SCT029 BKN080 30/21 A3002 RMK AO2
KOJA 181535Z AUTO 17012G16KT 10SM SCT027 SCT080 29/21 A3002 RMK AO2
KOJA 181515Z AUTO 16013G16KT 10SM SCT025 28/21 A3002 RMK AO2
KOJA 181455Z AUTO 18011G17KT 10SM CLR 28/22 A3002 RMK AO2
KOJA 181435Z AUTO 18013KT 10SM CLR 27/22 A3002 RMK AO2
KOJA 181415Z AUTO 18012G16KT 10SM SCT016 27/22 A3002 RMK AO2
KOJA 181355Z AUTO 19015G19KT 10SM SCT016 26/22 A3002 RMK AO2
KOJA 181335Z AUTO 18012G19KT 10SM CLR 26/22 A3001 RMK AO2
KOJA 181315Z AUTO 17013G18KT 10SM CLR 25/22 A3000 RMK AO2
KOJA 181255Z AUTO 16014KT 10SM CLR 25/22 A3000 RMK AO2
KOJA 181235Z AUTO 16009KT 10SM CLR 24/21 A3000 RMK AO2
KOJA 181215Z AUTO 16009KT 10SM CLR 23/21 A3000 RMK AO2
KOJA 181155Z AUTO 16007KT 10SM CLR 23/21 A3000 RMK AO2
KOJA 181135Z AUTO 16008KT 10SM CLR 23/21 A3000 RMK AO2
KOJA 181115Z AUTO 18006KT 10SM CLR 23/21 A2999 RMK AO2
KOJA 181055Z AUTO 17007KT 10SM CLR 23/21 A2999 RMK AO2
KOJA 181035Z AUTO 17007KT 10SM CLR 23/21 A2999 RMK AO2
KOJA 181015Z AUTO 17007KT 10SM CLR 24/21 A2998 RMK AO2
KOJA 180955Z AUTO 17007KT 10SM CLR 23/21 A2998 RMK AO2
KOJA 180935Z AUTO 17006KT 10SM CLR 24/21 A2998 RMK AO2
KOJA 180915Z AUTO 17007KT 10SM CLR 24/21 A2997 RMK AO2
KOJA 180855Z AUTO 16006KT 10SM CLR 25/21 A2997 RMK AO2
KOJA 180835Z AUTO 16008KT 10SM CLR 25/21 A2997 RMK AO2
KOJA 180815Z AUTO 16008KT 10SM CLR 25/21 A2997 RMK AO2
KOJA 180755Z AUTO 17012KT 10SM CLR 26/21 A2997 RMK AO2
KOJA 180735Z AUTO 16011KT 10SM CLR 26/21 A2997 RMK AO2
KOJA 180715Z AUTO 17011KT 10SM CLR 26/21 A2996 RMK AO2
KOJA 180655Z AUTO 16008KT 10SM CLR 26/21 A2996 RMK AO2
KOJA 180635Z AUTO 16007KT 10SM CLR 26/21 A2996 RMK AO2
KOJA 180615Z AUTO 16007KT 10SM CLR 26/21 A2996 RMK AO2
KOJA 180555Z AUTO 16007KT 10SM CLR 26/20 A2996 RMK AO2
KOJA 180535Z AUTO 15008G14KT 10SM CLR 26/20 A2995 RMK AO2
KOJA 180515Z AUTO 14010KT 10SM CLR 26/20 A2996 RMK AO2
KOJA 180455Z AUTO 15010KT 10SM CLR 27/20 A2996 RMK AO2
KOJA 180435Z AUTO 15008KT 10SM CLR 27/20 A2996 RMK AO2
KOJA 180415Z AUTO 13007KT 10SM CLR 27/20 A2996 RMK AO2
KOJA 180355Z AUTO 15011G16KT 10SM CLR 28/20 A2996 RMK AO2
KOJA 180335Z AUTO 14009KT 10SM CLR 28/20 A2995 RMK AO2
KOJA 180315Z AUTO 15010KT 10SM CLR 28/20 A2995 RMK AO2
KOJA 180255Z AUTO 15010KT 10SM CLR 28/20 A2993 RMK AO2
KOJA 180235Z AUTO 15013G17KT 10SM CLR 29/20 A2993 RMK AO2
KOJA 180215Z AUTO 15012G18KT 10SM CLR 30/20 A2993 RMK AO2
KOJA 180155Z AUTO 16011G18KT 10SM CLR 30/20 A2993 RMK AO2
KOJA 180135Z AUTO 15012G18KT 10SM CLR 31/19 A2993 RMK AO2
KOJA 180115Z AUTO 16016G19KT 10SM CLR 31/19 A2992 RMK AO2
KOJA 180055Z AUTO 16014G22KT 10SM SCT060 31/19 A2993 RMK AO2
KOJA 180035Z AUTO 16013G23KT 10SM SCT060 32/19 A2992 RMK AO2
KOJA 180015Z AUTO 17015G21KT 10SM CLR 32/19 A2991 RMK AO2
KOJA 172355Z AUTO 16018G26KT 10SM SCT060 32/18 A2990 RMK AO2
KOJA 172335Z AUTO 16015G24KT 10SM SCT060 32/19 A2990 RMK AO2
KOJA 172315Z AUTO 16019G25KT 10SM CLR 33/18 A2991 RMK AO2
KOJA 172255Z AUTO 16015G24KT 10SM CLR 33/18 A2991 RMK AO2
KOJA 172235Z AUTO 15019G28KT 10SM CLR 33/18 A2991 RMK AO2
KOJA 172215Z AUTO 14022G26KT 10SM CLR 33/18 A2991 RMK AO2
KOJA 172155Z AUTO 16018G25KT 10SM CLR 33/18 A2991 RMK AO2
KOJA 172135Z AUTO 14019G27KT 10SM CLR 33/18 A2990 RMK AO2
KOJA 172115Z AUTO 15020G26KT 10SM CLR 33/18 A2991 RMK AO2 LTG DSNT W